createdAt,value
2019-02-22T00:02:21.916Z,16.57
2019-02-22T00:07:51.183Z,13.77
2019-02-22T00:13:20.457Z,15.23
2019-02-22T00:18:49.732Z,15.03
2019-02-22T00:24:19.935Z,16.97
2019-02-22T00:29:49.272Z,16.07
2019-02-22T00:35:18.566Z,15.17
2019-02-22T00:40:47.849Z,12.50
2019-02-22T00:46:17.127Z,14.27
2019-02-22T00:51:46.410Z,12.67
2019-02-22T00:57:17.668Z,16.10
2019-02-22T01:02:46.948Z,18.13
2019-02-22T01:08:16.220Z,16.70
2019-02-22T01:13:45.505Z,14.10
2019-02-22T01:19:14.771Z,17.90
2019-02-22T01:24:44.046Z,15.83
2019-02-22T01:30:13.421Z,16.90
2019-02-22T01:35:42.685Z,17.23
2019-02-22T01:41:11.960Z,14.13
2019-02-22T01:46:41.238Z,17.60
2019-02-22T01:52:10.505Z,14.60
2019-02-22T01:57:39.774Z,16.90
2019-02-22T02:03:09.037Z,16.23
2019-02-22T02:08:38.325Z,16.13
2019-02-22T02:14:07.621Z,15.47
2019-02-22T02:19:36.898Z,14.07
2019-02-22T02:25:09.376Z,15.37
2019-02-22T02:30:38.662Z,14.83
2019-02-22T02:36:07.938Z,17.57
2019-02-22T02:41:37.287Z,16.77
2019-02-22T02:47:06.568Z,18.33
2019-02-22T02:52:36.194Z,19.90
2019-02-22T02:58:05.807Z,23.63
2019-02-22T03:03:36.585Z,20.90
2019-02-22T03:09:08.739Z,21.60
2019-02-22T03:14:38.339Z,19.37
2019-02-22T03:20:09.323Z,20.80
2019-02-22T03:25:38.603Z,23.03
2019-02-22T03:31:07.888Z,23.37
2019-02-22T03:36:37.153Z,22.30
2019-02-22T03:42:06.425Z,22.07
2019-02-22T03:47:55.025Z,24.43
2019-02-22T03:53:26.071Z,24.03
2019-02-22T03:58:55.444Z,19.57
2019-02-22T04:04:24.794Z,20.20
2019-02-22T04:09:54.063Z,22.17
2019-02-22T04:15:23.341Z,21.50
2019-02-22T04:20:52.622Z,23.70
2019-02-22T04:26:22.842Z,22.47
2019-02-22T04:31:52.122Z,23.00
2019-02-22T04:37:21.411Z,19.20
2019-02-22T04:42:50.693Z,22.20
2019-02-22T04:48:19.978Z,22.10
2019-02-22T04:53:49.316Z,21.97
2019-02-22T04:59:18.602Z,22.77
2019-02-22T05:04:47.878Z,24.70
2019-02-22T05:10:17.157Z,22.40
2019-02-22T05:15:46.434Z,21.40
2019-02-22T05:21:15.704Z,21.63
2019-02-22T05:26:44.981Z,25.10
2019-02-22T05:32:14.259Z,26.10
2019-02-22T05:37:44.762Z,20.60
2019-02-22T05:43:13.998Z,25.60
2019-02-22T05:48:43.283Z,23.77
2019-02-22T05:54:12.703Z,23.70
2019-02-22T05:59:42.915Z,26.73
2019-02-22T06:05:12.258Z,29.80
2019-02-22T06:10:41.548Z,22.60
2019-02-22T06:16:10.874Z,27.13
2019-02-22T06:21:40.148Z,26.63
2019-02-22T06:27:09.428Z,27.07
2019-02-22T06:32:38.701Z,27.50
2019-02-22T06:38:07.984Z,32.10
2019-02-22T06:43:37.286Z,32.37
2019-02-22T06:49:06.533Z,28.53
2019-02-22T06:54:35.812Z,31.13
2019-02-22T07:00:12.213Z,31.63
2019-02-22T07:05:41.504Z,31.00
2019-02-22T07:11:12.412Z,28.40
2019-02-22T07:16:41.686Z,30.47
2019-02-22T07:22:10.965Z,30.77
2019-02-22T07:27:40.239Z,26.40
2019-02-22T07:33:09.499Z,29.40
2019-02-22T07:38:38.845Z,28.93
2019-02-22T07:44:08.383Z,32.07
2019-02-22T07:49:38.796Z,30.30
2019-02-22T07:55:09.969Z,30.10
2019-02-22T08:00:39.240Z,29.53
2019-02-22T08:06:08.519Z,30.90
2019-02-22T08:11:43.680Z,29.57
2019-02-22T08:17:14.704Z,30.37
2019-02-22T08:22:44.104Z,32.63
2019-02-22T08:28:13.384Z,29.60
2019-02-22T08:33:42.664Z,30.97
2019-02-22T08:39:11.943Z,30.50
2019-02-22T08:44:41.218Z,29.87
2019-02-22T08:50:10.568Z,29.27
2019-02-22T08:55:39.855Z,29.97
2019-02-22T09:01:12.119Z,27.47
2019-02-22T09:06:41.373Z,30.50
2019-02-22T09:12:10.649Z,31.63
2019-02-22T09:17:39.919Z,30.20
2019-02-22T09:23:09.189Z,26.87
2019-02-22T09:28:38.447Z,29.13
2019-02-22T09:34:07.727Z,33.13
2019-02-22T09:39:37.001Z,28.70
2019-02-22T09:45:12.250Z,29.90
2019-02-22T09:50:41.528Z,29.40
2019-02-22T09:56:10.807Z,27.73
2019-02-22T10:01:40.084Z,27.93
2019-02-22T10:07:09.356Z,28.97
2019-02-22T10:12:38.699Z,29.30
2019-02-22T10:18:07.967Z,30.97
2019-02-22T10:23:37.241Z,27.70
2019-02-22T10:29:06.505Z,25.77
2019-02-22T10:34:36.016Z,28.93
2019-02-22T10:40:13.176Z,29.53
2019-02-22T10:45:42.448Z,27.50
2019-02-22T10:51:11.781Z,26.50
2019-02-22T10:56:41.286Z,26.33
2019-02-22T11:02:10.561Z,25.47
2019-02-22T11:07:39.850Z,25.00
2019-02-22T11:13:09.592Z,23.17
2019-02-22T11:18:39.866Z,23.70
2019-02-22T11:24:09.136Z,23.00
2019-02-22T11:29:38.533Z,22.77
2019-02-22T11:35:10.230Z,23.73
2019-02-22T11:40:39.504Z,21.90
2019-02-22T11:46:08.842Z,21.87
2019-02-22T11:51:38.124Z,20.73
2019-02-22T11:57:07.488Z,21.70
2019-02-22T12:02:36.755Z,20.27
2019-02-22T12:08:06.025Z,18.50
2019-02-22T12:13:35.296Z,18.10
2019-02-22T12:19:04.575Z,18.60
2019-02-22T12:24:34.814Z,17.00
2019-02-22T12:30:06.969Z,17.50
2019-02-22T12:35:36.272Z,16.67
2019-02-22T12:41:05.813Z,16.93
2019-02-22T12:46:37.384Z,15.83
2019-02-22T12:52:18.098Z,17.80
2019-02-22T12:57:49.150Z,17.10
2019-02-22T13:03:23.403Z,16.00
2019-02-22T13:08:55.971Z,16.30
2019-02-22T13:14:25.813Z,17.50
2019-02-22T13:19:55.542Z,16.67
2019-02-22T13:25:26.333Z,15.47
2019-02-22T13:30:59.024Z,16.10
2019-02-22T13:36:31.133Z,14.17
2019-02-22T13:42:04.858Z,14.93
2019-02-22T13:47:34.605Z,16.40
2019-02-22T13:53:04.350Z,15.27
2019-02-22T13:58:37.927Z,15.27
2019-02-22T14:04:08.948Z,15.33
2019-02-22T14:09:42.648Z,15.27
2019-02-22T14:15:11.654Z,15.30
2019-02-22T14:20:42.100Z,12.60
2019-02-22T14:26:13.189Z,12.67
2019-02-22T14:31:47.095Z,11.43
2019-02-22T14:37:18.233Z,12.17
2019-02-22T14:42:47.880Z,11.63
2019-02-22T14:48:19.144Z,11.70
2019-02-22T14:53:57.106Z,11.40
2019-02-22T14:59:24.114Z,10.37
2019-02-22T15:04:56.678Z,10.70
2019-02-22T15:10:26.503Z,11.27
2019-02-22T15:16:04.060Z,10.67
2019-02-22T15:21:34.664Z,11.10
2019-02-22T15:27:05.765Z,11.13
2019-02-22T15:32:37.496Z,11.60
2019-02-22T15:38:10.088Z,10.97
2019-02-22T15:43:40.612Z,10.60
2019-02-22T15:49:16.189Z,11.20
2019-02-22T15:54:47.056Z,13.50
2019-02-22T16:00:26.099Z,11.17
2019-02-22T16:06:01.438Z,12.00
2019-02-22T16:11:32.739Z,9.23
2019-02-22T16:17:14.312Z,12.18
2019-02-22T16:22:54.588Z,8.73
2019-02-22T16:28:27.753Z,7.40
2019-02-22T16:33:57.249Z,6.97
2019-02-22T16:39:26.866Z,5.83
2019-02-22T16:44:58.120Z,6.43
2019-02-22T16:50:29.702Z,5.67
2019-02-22T17:02:12.912Z,3.93
2019-02-22T17:07:59.562Z,3.67
2019-02-22T17:13:21.460Z,3.80
2019-02-22T17:19:00.094Z,3.30
2019-02-22T17:24:31.926Z,3.63
2019-02-22T17:30:02.039Z,3.80
2019-02-22T17:35:39.909Z,4.33
2019-02-22T17:41:09.895Z,5.30
2019-02-22T17:46:42.462Z,5.97
2019-02-22T17:52:17.057Z,5.60
2019-02-22T17:57:53.812Z,5.30
2019-02-22T18:03:26.016Z,5.10
2019-02-22T18:09:09.681Z,5.90
2019-02-22T18:14:42.680Z,7.00
2019-02-22T18:20:17.442Z,7.53
2019-02-22T18:25:48.875Z,6.33
2019-02-22T18:31:19.340Z,8.40
2019-02-22T18:36:53.480Z,8.63
2019-02-22T18:42:24.775Z,8.50
2019-02-22T18:47:54.717Z,8.53
2019-02-22T18:53:27.043Z,8.60
2019-02-22T18:58:58.388Z,10.13
2019-02-22T19:04:30.961Z,10.53
2019-02-22T19:10:00.653Z,7.70
2019-02-22T19:15:35.566Z,6.20
2019-02-22T19:21:07.339Z,5.33
2019-02-22T19:32:51.407Z,4.53
2019-02-22T19:38:22.673Z,3.83
2019-02-22T19:43:52.429Z,3.70
2019-02-22T19:49:25.548Z,4.40
2019-02-22T19:54:58.465Z,4.33
2019-02-22T20:00:32.577Z,6.37
2019-02-22T20:06:02.437Z,6.53
2019-02-22T20:11:34.293Z,7.23
2019-02-22T20:17:09.971Z,7.93
2019-02-22T20:22:47.292Z,6.90
2019-02-22T20:28:24.631Z,7.03
2019-02-22T20:33:53.079Z,7.97
2019-02-22T20:39:22.355Z,8.03
2019-02-22T20:44:51.642Z,8.30
2019-02-22T20:50:20.929Z,7.73
2019-02-22T20:55:50.585Z,8.40
2019-02-22T21:01:20.423Z,9.40
2019-02-22T21:06:49.690Z,6.77
2019-02-22T21:12:20.490Z,6.63
2019-02-22T21:17:49.773Z,6.37
2019-02-22T21:23:20.019Z,8.00
2019-02-22T21:28:49.287Z,7.53
2019-02-22T21:34:18.590Z,7.27
2019-02-22T21:39:47.871Z,7.30
2019-02-22T21:45:17.853Z,8.40
2019-02-22T21:50:49.853Z,7.00
2019-02-22T21:56:19.109Z,7.70
2019-02-22T22:01:48.370Z,7.50
2019-02-22T22:07:17.642Z,7.30
2019-02-22T22:12:46.920Z,7.50
2019-02-22T22:18:17.117Z,9.07
2019-02-22T22:23:46.391Z,8.83
2019-02-22T22:29:15.662Z,8.97
2019-02-22T22:34:45.084Z,9.20
2019-02-22T22:40:15.302Z,8.63
2019-02-22T22:45:45.559Z,9.47
2019-02-22T22:51:14.831Z,10.03
2019-02-22T22:56:44.099Z,9.80
2019-02-22T23:02:13.530Z,10.53
2019-02-22T23:07:42.793Z,9.33
2019-02-22T23:13:13.985Z,10.20
2019-02-22T23:18:43.350Z,9.90
2019-02-22T23:24:12.623Z,9.20
2019-02-22T23:29:42.854Z,9.40
2019-02-22T23:35:12.123Z,9.53
2019-02-22T23:40:41.407Z,8.90
2019-02-22T23:46:10.675Z,9.73
2019-02-22T23:51:40.966Z,9.70
2019-02-22T23:57:10.225Z,8.90
